createdAt,value
2023-12-14T00:01:24.617Z,90.10
2023-12-14T00:03:53.076Z,90.10
2023-12-14T00:06:20.460Z,90.10
2023-12-14T00:08:48.525Z,90.10
2023-12-14T00:11:15.744Z,90.20
2023-12-14T00:13:43.192Z,90.10
2023-12-14T00:16:10.390Z,90.10
2023-12-14T00:18:38.351Z,90.00
2023-12-14T00:21:08.369Z,90.00
2023-12-14T00:23:35.450Z,90.00
2023-12-14T00:26:02.827Z,90.00
2023-12-14T00:28:32.411Z,90.00
2023-12-14T00:31:01.794Z,90.00
2023-12-14T00:33:29.116Z,89.90
2023-12-14T00:35:56.893Z,89.90
2023-12-14T00:38:25.489Z,89.90
2023-12-14T00:40:52.954Z,90.00
2023-12-14T00:43:20.605Z,90.00
2023-12-14T00:45:47.817Z,90.00
2023-12-14T00:48:15.015Z,89.90
2023-12-14T00:50:42.441Z,89.90
2023-12-14T00:53:09.650Z,89.90
2023-12-14T00:55:38.399Z,89.90
2023-12-14T00:58:06.142Z,89.90
2023-12-14T01:00:33.427Z,89.90
2023-12-14T01:03:00.452Z,89.90
2023-12-14T01:05:27.560Z,89.80
2023-12-14T01:07:54.688Z,89.80
2023-12-14T01:10:22.529Z,89.80
2023-12-14T01:12:51.409Z,89.80
2023-12-14T01:15:18.639Z,89.80
2023-12-14T01:17:46.171Z,89.70
2023-12-14T01:20:13.791Z,89.70
2023-12-14T01:22:41.118Z,89.70
2023-12-14T01:25:08.835Z,89.80
2023-12-14T01:27:36.015Z,89.80
2023-12-14T01:30:05.046Z,89.80
2023-12-14T01:32:32.247Z,89.80
2023-12-14T01:34:59.569Z,89.70
2023-12-14T01:37:26.625Z,89.70
2023-12-14T01:39:53.611Z,89.80
2023-12-14T01:42:20.801Z,89.70
2023-12-14T01:44:47.960Z,89.80
2023-12-14T01:47:16.717Z,89.70
2023-12-14T01:49:43.848Z,89.70
2023-12-14T01:52:11.209Z,89.80
2023-12-14T01:54:38.542Z,89.70
2023-12-14T01:57:06.405Z,89.70
2023-12-14T01:59:33.498Z,89.70
2023-12-14T02:02:02.482Z,89.80
2023-12-14T02:04:31.875Z,89.70
2023-12-14T02:06:59.867Z,89.70
2023-12-14T02:09:26.892Z,89.70
2023-12-14T02:11:54.087Z,89.70
2023-12-14T02:14:24.710Z,89.70
2023-12-14T02:16:51.917Z,89.70
2023-12-14T02:19:19.601Z,89.70
2023-12-14T02:21:49.663Z,89.70
2023-12-14T02:24:18.369Z,89.70
2023-12-14T02:27:01.807Z,89.70
2023-12-14T02:29:31.201Z,89.70
2023-12-14T02:31:58.577Z,89.70
2023-12-14T02:34:29.065Z,89.70
2023-12-14T02:36:56.549Z,89.60
2023-12-14T02:39:25.252Z,89.70
2023-12-14T02:41:52.282Z,89.70
2023-12-14T02:44:19.679Z,89.60
2023-12-14T02:46:46.833Z,89.60
2023-12-14T02:49:14.221Z,89.70
2023-12-14T02:51:41.487Z,89.60
2023-12-14T02:54:08.729Z,89.60
2023-12-14T02:56:37.271Z,89.60
2023-12-14T02:59:04.494Z,89.60
2023-12-14T03:01:32.137Z,89.70
2023-12-14T03:03:59.531Z,89.70
2023-12-14T03:06:26.976Z,89.70
2023-12-14T03:08:54.088Z,89.60
2023-12-14T03:11:25.017Z,89.70
2023-12-14T03:13:53.759Z,89.70
2023-12-14T03:16:21.255Z,89.70
2023-12-14T03:18:53.570Z,89.60
2023-12-14T03:21:21.071Z,89.60
2023-12-14T03:23:48.148Z,89.60
2023-12-14T03:26:15.276Z,89.70
2023-12-14T03:28:42.562Z,89.70
2023-12-14T03:31:12.439Z,89.70
2023-12-14T03:33:40.194Z,89.60
2023-12-14T03:36:08.072Z,89.60
2023-12-14T03:38:35.630Z,89.60
2023-12-14T03:41:02.698Z,89.60
2023-12-14T03:43:30.105Z,89.60
2023-12-14T03:45:57.373Z,89.50
2023-12-14T03:48:25.918Z,89.50
2023-12-14T03:50:53.373Z,89.50
2023-12-14T03:53:20.926Z,89.50
2023-12-14T03:55:47.972Z,89.60
2023-12-14T03:58:15.416Z,89.50
2023-12-14T04:00:42.554Z,89.50
2023-12-14T04:03:09.915Z,89.40
2023-12-14T04:05:40.027Z,89.50
2023-12-14T04:08:07.686Z,89.50
2023-12-14T04:10:35.249Z,89.40
2023-12-14T04:13:02.372Z,89.50
2023-12-14T04:15:29.998Z,89.40
2023-12-14T04:17:57.101Z,89.40
2023-12-14T04:20:24.210Z,89.40
2023-12-14T04:22:54.026Z,89.40
2023-12-14T04:25:21.339Z,89.40
2023-12-14T04:27:48.490Z,89.30
2023-12-14T04:30:16.999Z,89.40
2023-12-14T04:32:44.157Z,89.20
2023-12-14T04:35:11.277Z,89.30
2023-12-14T04:37:38.766Z,89.30
2023-12-14T04:40:09.414Z,89.30
2023-12-14T04:42:37.222Z,89.30
2023-12-14T04:45:06.945Z,89.30
2023-12-14T04:47:34.165Z,89.20
2023-12-14T04:50:03.032Z,89.20
2023-12-14T04:52:30.153Z,89.10
2023-12-14T04:54:57.616Z,89.20
2023-12-14T04:57:26.330Z,89.10
2023-12-14T04:59:53.653Z,89.00
2023-12-14T05:02:21.150Z,89.10
2023-12-14T05:04:48.501Z,89.00
2023-12-14T05:07:16.712Z,89.00
2023-12-14T05:09:43.991Z,89.00
2023-12-14T05:12:11.117Z,89.00
2023-12-14T05:14:39.875Z,88.90
2023-12-14T05:17:07.129Z,89.00
2023-12-14T05:19:37.488Z,89.00
2023-12-14T05:22:05.142Z,89.00
2023-12-14T05:24:32.206Z,88.90
2023-12-14T05:26:59.426Z,88.90
2023-12-14T05:29:26.361Z,88.90
2023-12-14T05:31:55.398Z,88.90
2023-12-14T05:34:22.833Z,88.90
2023-12-14T05:36:49.906Z,88.90
2023-12-14T05:39:17.366Z,88.80
2023-12-14T05:41:45.157Z,88.90
2023-12-14T05:44:12.262Z,88.80
2023-12-14T05:46:39.885Z,88.80
2023-12-14T05:49:09.115Z,88.90
2023-12-14T05:51:36.510Z,88.90
2023-12-14T05:54:03.703Z,88.90
2023-12-14T05:56:32.198Z,88.80
2023-12-14T05:59:00.701Z,88.90
2023-12-14T06:01:28.897Z,88.80
2023-12-14T06:03:56.186Z,88.80
2023-12-14T06:06:25.118Z,88.90
2023-12-14T06:08:52.274Z,88.80
2023-12-14T06:11:19.417Z,88.80
2023-12-14T06:13:46.629Z,88.80
2023-12-14T06:16:14.112Z,88.50
2023-12-14T06:18:43.314Z,88.60
2023-12-14T06:21:12.512Z,88.60
2023-12-14T06:23:41.424Z,88.60
2023-12-14T06:26:08.746Z,88.70
2023-12-14T06:28:36.063Z,88.70
2023-12-14T06:31:03.244Z,88.60
2023-12-14T06:33:31.213Z,88.70
2023-12-14T06:35:58.821Z,88.60
2023-12-14T06:38:25.815Z,88.70
2023-12-14T06:40:54.776Z,88.60
2023-12-14T06:43:22.114Z,88.60
2023-12-14T06:45:49.173Z,88.70
2023-12-14T06:48:17.561Z,88.70
2023-12-14T06:50:47.329Z,88.50
2023-12-14T06:53:17.228Z,88.40
2023-12-14T06:55:44.472Z,88.50
2023-12-14T06:58:13.830Z,88.50
2023-12-14T07:00:40.991Z,88.50
2023-12-14T07:03:08.049Z,88.50
2023-12-14T07:05:36.379Z,88.40
2023-12-14T07:08:06.137Z,88.40
2023-12-14T07:10:33.778Z,88.50
2023-12-14T07:13:01.066Z,88.50
2023-12-14T07:15:29.740Z,88.40
2023-12-14T07:17:56.832Z,88.30
2023-12-14T07:20:24.099Z,88.30
2023-12-14T07:22:51.337Z,88.40
2023-12-14T07:25:18.449Z,88.40
2023-12-14T07:27:47.673Z,88.30
2023-12-14T07:30:15.900Z,88.40
2023-12-14T07:32:45.308Z,88.30
2023-12-14T07:35:12.502Z,88.20
2023-12-14T07:37:40.123Z,88.30
2023-12-14T07:40:09.242Z,88.20
2023-12-14T07:42:36.499Z,88.40
2023-12-14T07:45:04.484Z,88.20
2023-12-14T07:47:31.744Z,88.20
2023-12-14T07:50:00.805Z,88.20
2023-12-14T07:52:27.942Z,88.20
2023-12-14T07:54:54.952Z,88.10
2023-12-14T07:57:22.033Z,88.20
2023-12-14T07:59:49.198Z,88.30
2023-12-14T08:02:16.859Z,88.20
2023-12-14T08:04:44.495Z,88.10
2023-12-14T08:07:13.568Z,88.20
2023-12-14T08:09:40.682Z,88.10
2023-12-14T08:12:08.008Z,88.20
2023-12-14T08:14:35.444Z,88.10
2023-12-14T08:17:03.098Z,88.00
2023-12-14T08:19:31.199Z,88.10
2023-12-14T08:21:58.747Z,88.10
2023-12-14T08:24:27.445Z,88.10
2023-12-14T08:26:54.880Z,88.10
2023-12-14T08:29:22.067Z,88.00
2023-12-14T08:31:49.398Z,88.10
2023-12-14T08:34:16.533Z,88.10
2023-12-14T08:36:43.514Z,88.10
2023-12-14T08:39:10.526Z,88.00
2023-12-14T08:41:39.200Z,88.00
2023-12-14T08:44:06.544Z,88.00
2023-12-14T08:46:40.414Z,88.00
2023-12-14T08:49:07.597Z,88.00
2023-12-14T08:51:34.680Z,88.10
2023-12-14T08:54:02.020Z,88.00
2023-12-14T08:56:29.243Z,87.90
2023-12-14T08:58:58.654Z,87.90
2023-12-14T09:01:26.162Z,88.00
2023-12-14T09:03:53.489Z,87.80
2023-12-14T09:06:20.722Z,87.90
2023-12-14T09:08:48.045Z,87.90
2023-12-14T09:11:16.444Z,88.00
2023-12-14T09:13:43.661Z,87.80
2023-12-14T09:16:12.089Z,87.90
2023-12-14T09:18:39.751Z,87.70
2023-12-14T09:21:07.097Z,87.70
2023-12-14T09:23:34.141Z,87.90
2023-12-14T09:26:01.738Z,87.80
2023-12-14T09:28:28.795Z,87.90
2023-12-14T09:30:55.902Z,87.80
2023-12-14T09:33:24.557Z,87.80
2023-12-14T09:35:51.967Z,87.80
2023-12-14T09:38:20.574Z,88.40
2023-12-14T09:40:48.202Z,88.40
2023-12-14T09:43:16.087Z,88.20
2023-12-14T09:45:46.695Z,88.20
2023-12-14T09:48:14.506Z,88.00
2023-12-14T09:50:43.666Z,88.00
2023-12-14T09:53:11.054Z,87.70
2023-12-14T09:55:38.152Z,87.50
2023-12-14T09:58:07.660Z,87.10
2023-12-14T10:00:36.130Z,87.10
2023-12-14T10:03:22.574Z,87.00
2023-12-14T10:05:53.414Z,86.80
2023-12-14T10:08:21.071Z,86.60
2023-12-14T10:10:54.425Z,86.30
2023-12-14T10:13:22.915Z,86.30
2023-12-14T10:15:50.837Z,86.30
2023-12-14T10:18:24.145Z,86.10
2023-12-14T10:20:53.002Z,86.20
2023-12-14T10:23:20.249Z,85.70
2023-12-14T10:25:47.876Z,85.70
2023-12-14T10:28:15.116Z,86.00
2023-12-14T10:30:42.910Z,85.60
2023-12-14T10:33:10.583Z,85.60
2023-12-14T10:35:38.095Z,85.60
2023-12-14T10:38:07.990Z,85.70
2023-12-14T10:40:35.896Z,85.70
2023-12-14T10:43:06.712Z,85.70
2023-12-14T12:05:50.885Z,81.10
2023-12-14T12:08:21.073Z,84.20
2023-12-14T12:10:49.446Z,84.30
2023-12-14T12:13:17.932Z,84.20
2023-12-14T12:15:46.432Z,84.20
2023-12-14T12:18:15.108Z,84.50
2023-12-14T12:20:42.519Z,84.50
2023-12-14T12:23:13.463Z,84.50
2023-12-14T12:25:40.840Z,84.20
2023-12-14T12:28:09.647Z,84.40
2023-12-14T12:30:39.318Z,85.10
2023-12-14T12:33:08.945Z,84.70
2023-12-14T12:35:36.478Z,84.80
2023-12-14T12:38:04.596Z,84.60
2023-12-14T12:40:34.836Z,84.80
2023-12-14T12:43:02.398Z,84.60
2023-12-14T12:45:30.393Z,84.80
2023-12-14T12:47:57.783Z,84.60
2023-12-14T12:50:25.666Z,84.50
2023-12-14T12:52:52.932Z,84.60
2023-12-14T12:55:20.183Z,84.70
2023-12-14T12:57:50.087Z,84.70
2023-12-14T13:00:17.761Z,85.10
2023-12-14T13:02:47.449Z,85.00
2023-12-14T13:05:18.021Z,84.50
2023-12-14T13:07:46.879Z,84.70
2023-12-14T13:10:25.175Z,84.70
2023-12-14T13:12:58.086Z,84.80
2023-12-14T13:15:30.496Z,84.90
2023-12-14T13:17:58.622Z,84.90
2023-12-14T13:20:26.031Z,85.30
2023-12-14T13:22:54.360Z,84.90
2023-12-14T13:25:24.033Z,84.90
2023-12-14T13:27:51.376Z,84.90
2023-12-14T13:30:20.453Z,84.80
2023-12-14T13:32:47.776Z,84.70
2023-12-14T13:35:15.334Z,85.00
2023-12-14T13:37:42.825Z,85.00
2023-12-14T13:40:13.816Z,84.80
2023-12-14T13:42:50.791Z,85.00
2023-12-14T13:45:33.124Z,84.90
2023-12-14T13:48:01.032Z,84.90
2023-12-14T13:50:30.597Z,84.60
2023-12-14T13:52:57.928Z,84.60
2023-12-14T13:55:25.322Z,84.40
2023-12-14T13:57:52.554Z,84.50
2023-12-14T14:00:22.968Z,84.70
2023-12-14T14:02:51.546Z,84.80
2023-12-14T14:05:18.977Z,84.70
2023-12-14T14:07:46.872Z,84.80
2023-12-14T14:10:14.310Z,84.60
2023-12-14T14:12:41.433Z,84.90
2023-12-14T14:15:10.118Z,84.80
2023-12-14T14:17:37.230Z,84.80
2023-12-14T14:20:08.022Z,84.80
2023-12-14T14:22:35.368Z,84.90
2023-12-14T14:25:10.217Z,84.70
2023-12-14T14:27:37.635Z,84.60
2023-12-14T14:30:06.436Z,84.60
2023-12-14T14:32:34.317Z,84.60
2023-12-14T14:35:02.216Z,84.70
2023-12-14T14:37:30.847Z,84.60
2023-12-14T14:39:57.930Z,84.50
2023-12-14T14:42:25.088Z,84.60
2023-12-14T14:44:52.149Z,84.50
2023-12-14T14:47:19.337Z,84.60
2023-12-14T14:49:46.485Z,84.80
2023-12-14T14:52:13.552Z,84.90
2023-12-14T14:55:52.108Z,85.20
2023-12-14T14:57:30.356Z,85.10
2023-12-14T14:59:57.504Z,85.20
2023-12-14T15:02:24.928Z,85.20
2023-12-14T15:04:52.190Z,85.30
2023-12-14T15:07:19.583Z,85.30
2023-12-14T15:09:48.371Z,85.40
2023-12-14T15:12:15.423Z,85.40
2023-12-14T15:14:42.840Z,85.50
2023-12-14T15:17:09.902Z,85.60
2023-12-14T15:19:37.137Z,85.70
2023-12-14T15:22:06.879Z,85.70
2023-12-14T15:24:33.999Z,85.80
2023-12-14T15:27:07.155Z,85.80
2023-12-14T15:29:34.436Z,85.80
2023-12-14T15:32:01.733Z,85.90
2023-12-14T15:34:28.982Z,85.80
2023-12-14T15:36:56.017Z,85.80
2023-12-14T15:39:23.362Z,85.80
2023-12-14T15:41:50.368Z,85.80
2023-12-14T15:44:22.844Z,85.80
2023-12-14T15:46:50.059Z,85.80
2023-12-14T15:49:17.297Z,85.90
2023-12-14T15:51:45.235Z,85.90
2023-12-14T15:54:12.580Z,85.80
2023-12-14T15:56:39.735Z,85.80
2023-12-14T15:59:08.459Z,85.90
2023-12-14T16:01:38.183Z,85.90
2023-12-14T16:04:08.240Z,85.90
2023-12-14T16:06:35.465Z,85.90
2023-12-14T16:09:04.126Z,85.90
2023-12-14T16:11:31.192Z,86.00
2023-12-14T16:13:58.398Z,85.90
2023-12-14T16:16:25.776Z,85.90
2023-12-14T16:18:54.443Z,86.00
2023-12-14T16:21:21.556Z,86.00
2023-12-14T16:23:48.620Z,86.00
2023-12-14T16:26:16.182Z,86.00
2023-12-14T16:28:43.258Z,86.00
2023-12-14T16:31:10.725Z,86.00
2023-12-14T16:33:40.156Z,86.10
2023-12-14T16:36:47.412Z,86.10
2023-12-14T16:39:16.441Z,86.10
2023-12-14T16:41:43.530Z,86.10
2023-12-14T16:44:11.219Z,86.10
2023-12-14T16:46:38.374Z,86.10
2023-12-14T16:49:05.537Z,86.10
2023-12-14T16:51:34.607Z,86.10
2023-12-14T16:54:04.186Z,86.20
2023-12-14T16:56:34.162Z,86.20
2023-12-14T16:59:01.577Z,86.30
2023-12-14T17:01:28.979Z,86.30
2023-12-14T17:03:56.258Z,86.30
2023-12-14T17:06:24.300Z,86.40
2023-12-14T17:08:54.530Z,86.40
2023-12-14T17:11:22.407Z,86.40
2023-12-14T17:13:51.279Z,86.50
2023-12-14T17:16:20.088Z,86.50
2023-12-14T17:18:48.227Z,86.50
2023-12-14T17:21:19.335Z,86.50
2023-12-14T17:23:47.058Z,86.60
2023-12-14T17:26:14.842Z,86.60
2023-12-14T17:28:44.776Z,86.60
2023-12-14T17:31:14.054Z,86.70
2023-12-14T17:33:41.679Z,86.60
2023-12-14T17:36:09.482Z,86.70
2023-12-14T17:38:36.723Z,86.70
2023-12-14T17:41:06.607Z,86.70
2023-12-14T17:43:35.758Z,86.70
2023-12-14T17:46:03.311Z,86.80
2023-12-14T17:48:32.799Z,86.80
2023-12-14T17:51:01.488Z,86.80
2023-12-14T17:53:28.773Z,86.90
2023-12-14T17:55:57.661Z,86.90
2023-12-14T17:58:25.446Z,86.90
2023-12-14T18:00:52.629Z,86.90
2023-12-14T18:03:19.872Z,87.00
2023-12-14T18:05:48.522Z,87.00
2023-12-14T18:08:16.070Z,87.00
2023-12-14T18:10:43.453Z,87.00
2023-12-14T18:13:10.525Z,87.00
2023-12-14T18:15:37.637Z,87.00
2023-12-14T18:18:04.933Z,87.00
2023-12-14T18:20:32.229Z,87.00
2023-12-14T18:23:01.003Z,87.10
2023-12-14T18:25:28.179Z,87.10
2023-12-14T18:28:00.335Z,87.10
2023-12-14T18:30:27.556Z,87.00
2023-12-14T18:32:54.891Z,87.10
2023-12-14T18:35:22.000Z,87.10
2023-12-14T18:37:51.173Z,87.10
2023-12-14T18:40:23.384Z,87.10
2023-12-14T18:42:50.541Z,87.10
2023-12-14T18:45:17.559Z,87.10
2023-12-14T18:47:44.772Z,87.10
2023-12-14T18:50:12.104Z,87.10
2023-12-14T18:52:39.346Z,87.10
2023-12-14T18:55:07.580Z,87.10
2023-12-14T18:57:36.185Z,87.00
2023-12-14T19:00:04.678Z,87.10
2023-12-14T19:02:32.554Z,87.10
2023-12-14T19:04:59.994Z,87.10
2023-12-14T19:07:27.071Z,87.10
2023-12-14T19:09:55.213Z,87.10
2023-12-14T19:12:23.094Z,87.10
2023-12-14T19:14:51.555Z,87.10
2023-12-14T19:17:18.767Z,87.10
2023-12-14T19:19:45.963Z,87.10
2023-12-14T19:22:13.142Z,87.10
2023-12-14T19:24:40.359Z,87.10
2023-12-14T19:27:07.543Z,87.10
2023-12-14T19:29:34.713Z,87.00
2023-12-14T19:32:03.591Z,87.00
2023-12-14T19:34:30.668Z,87.10
2023-12-14T19:36:58.058Z,87.10
2023-12-14T19:39:25.871Z,87.10
2023-12-14T19:41:53.194Z,87.10
2023-12-14T19:44:20.903Z,87.10
2023-12-14T19:46:48.139Z,87.10
2023-12-14T19:49:16.679Z,87.10
2023-12-14T19:51:44.017Z,87.10
2023-12-14T19:54:11.106Z,87.10
2023-12-14T19:56:38.164Z,87.10
2023-12-14T19:59:05.276Z,87.10
2023-12-14T20:01:32.858Z,87.10
2023-12-14T20:04:00.784Z,87.10
2023-12-14T20:06:29.562Z,87.10
2023-12-14T20:08:57.008Z,87.10
2023-12-14T20:11:24.359Z,87.00
2023-12-14T20:13:51.476Z,87.00
2023-12-14T20:16:18.889Z,87.00
2023-12-14T20:18:46.338Z,87.00
2023-12-14T20:21:13.676Z,87.10
2023-12-14T20:23:42.245Z,87.10
2023-12-14T20:26:10.473Z,87.10
2023-12-14T20:28:37.812Z,87.10
2023-12-14T20:31:05.828Z,87.00
2023-12-14T20:33:33.413Z,87.00
2023-12-14T20:36:00.892Z,87.10
2023-12-14T20:38:28.275Z,87.10
2023-12-14T20:40:59.234Z,87.10
2023-12-14T20:43:26.595Z,87.10
2023-12-14T20:45:53.943Z,87.10
2023-12-14T20:48:21.555Z,87.10
2023-12-14T20:50:49.040Z,87.10
2023-12-14T20:53:16.274Z,87.10
2023-12-14T20:55:43.493Z,87.10
2023-12-14T20:58:13.968Z,87.10
2023-12-14T21:00:41.254Z,87.10
2023-12-14T21:03:08.757Z,87.10
2023-12-14T21:05:43.226Z,87.20
2023-12-14T21:08:15.529Z,87.20
2023-12-14T21:10:42.715Z,87.20
2023-12-14T21:13:11.622Z,87.10
2023-12-14T21:15:38.915Z,87.20
2023-12-14T21:18:06.674Z,87.20
2023-12-14T21:20:34.116Z,87.20
2023-12-14T21:23:01.653Z,87.20
2023-12-14T21:25:39.141Z,87.20
2023-12-14T21:28:06.852Z,87.20
2023-12-14T21:30:36.037Z,87.20
2023-12-14T21:33:05.012Z,87.20
2023-12-14T21:35:32.576Z,87.30
2023-12-14T21:37:59.941Z,87.30
2023-12-14T21:40:27.031Z,87.30
2023-12-14T21:42:54.279Z,87.40
2023-12-14T21:45:21.625Z,87.40
2023-12-14T21:47:50.285Z,87.40
2023-12-14T21:50:17.802Z,87.40
2023-12-14T21:52:45.125Z,87.30
2023-12-14T21:55:12.293Z,87.30
2023-12-14T21:57:39.754Z,87.30
2023-12-14T22:00:08.787Z,87.30
2023-12-14T22:02:36.267Z,87.30
2023-12-14T22:05:06.250Z,87.30
2023-12-14T22:07:34.293Z,87.30
2023-12-14T22:10:06.718Z,87.20
2023-12-14T22:12:33.990Z,87.30
2023-12-14T22:15:01.766Z,87.20
2023-12-14T22:17:29.108Z,87.30
2023-12-14T22:19:56.313Z,87.30
2023-12-14T22:22:24.864Z,87.30
2023-12-14T22:24:52.127Z,87.30
2023-12-14T22:27:20.505Z,87.30
2023-12-14T22:29:47.769Z,87.30
2023-12-14T22:32:14.966Z,87.30
2023-12-14T22:34:42.415Z,87.30
2023-12-14T22:37:09.513Z,87.30
2023-12-14T22:39:38.053Z,87.30
2023-12-14T22:42:09.120Z,87.30
2023-12-14T22:44:37.384Z,87.30
2023-12-14T22:47:06.288Z,87.30
2023-12-14T22:49:33.572Z,87.30
2023-12-14T22:52:03.310Z,87.40
2023-12-14T22:54:30.655Z,87.40
2023-12-14T22:56:59.499Z,87.50
2023-12-14T22:59:29.104Z,87.50
2023-12-14T23:01:56.545Z,87.50
2023-12-14T23:04:23.571Z,87.50
2023-12-14T23:06:50.671Z,87.50
2023-12-14T23:09:18.698Z,87.50
2023-12-14T23:11:49.305Z,87.60
2023-12-14T23:14:18.059Z,87.70
2023-12-14T23:16:45.889Z,87.70
2023-12-14T23:19:13.352Z,87.70
2023-12-14T23:21:40.544Z,87.70
2023-12-14T23:24:08.208Z,87.80
2023-12-14T23:26:35.312Z,87.70
2023-12-14T23:29:02.858Z,87.70
2023-12-14T23:31:31.434Z,87.90
2023-12-14T23:33:58.603Z,87.80
2023-12-14T23:36:26.581Z,87.90
2023-12-14T23:38:53.709Z,87.90
2023-12-14T23:41:20.996Z,88.10
2023-12-14T23:43:48.164Z,88.00
2023-12-14T23:46:15.407Z,88.20
2023-12-14T23:48:45.055Z,88.30
2023-12-14T23:51:12.532Z,88.10
2023-12-14T23:53:39.590Z,88.30
2023-12-14T23:56:07.984Z,88.20
2023-12-14T23:58:35.286Z,88.20
